KMMT/MMT METAR and TAF weather

Enter ICAO airport designator
Station Type Date Time Source
KMMT METAR 2019/11/18 14:06 UTC NOAA

KMMT 181406Z 08003KT 4SM -RA BR FEW003 BKN020 OVC026 07/07 A2988 RMK AO2A SLP122 $


Station Type Date Time Source
KMMT Decoded METAR 2019/11/18 14:06 UTC NOAA

McEntire Air National Guard Weather Facility Base, SC, United States (KMMT) 33-55N 080-48W
Nov 18, 2019 - 09:06 AM EST / 2019.11.18 1406 UTC
Wind: from the E (080 degrees) at 3 MPH (3 KT):0
Visibility: 4 mile(s):0
Sky conditions: overcast
Weather: light rain; mist
Temperature: 44 F (7 C)
Dew Point: 44 F (7 C)
Relative Humidity: 100%
Pressure (altimeter): 29.88 in. Hg (1011 hPa)
ob: KMMT 181406Z 08003KT 4SM -RA BR FEW003 BKN020 OVC026 07/07 A2988 RMK AO2A SLP122
cycle: 14

Station Type Date Time Source
KMMT TAF 2019/11/18 11:58 UTC NOAA

TAF
AMD KMMT 181152Z 1811/1914 VRB06KT 9000 -DZ SCT007 OVC017 QNH2983INS
TEMPO 1811/1816 BKN009 OVC020
BECMG 1816/1817 29006KT 9999 NSW BKN025 QNH2981INS
BECMG 1900/1901 28006KT 9999 SCT030 BKN050 QNH2984INS TX12/1820Z TN06/1811Z

Example: see airport list